sensor_id;sensor_type;location;lat;lon;timestamp;pressure;altitude;pressure_sealevel;temperature;humidity
55466;BME280;41329;41.594;23.810;2022-12-11T00:00:43;93686.66;;;13.72;89.02
55466;BME280;41329;41.594;23.810;2022-12-11T00:03:08;93684.47;;;13.64;89.73
55466;BME280;41329;41.594;23.810;2022-12-11T00:05:37;93664.84;;;13.55;90.31
55466;BME280;41329;41.594;23.810;2022-12-11T00:08:03;93677.81;;;13.77;89.65
55466;BME280;41329;41.594;23.810;2022-12-11T00:10:28;93669.50;;;13.58;90.71
55466;BME280;41329;41.594;23.810;2022-12-11T00:12:54;93666.88;;;13.70;90.14
55466;BME280;41329;41.594;23.810;2022-12-11T00:15:19;93668.28;;;13.59;90.14
55466;BME280;41329;41.594;23.810;2022-12-11T00:17:45;93697.94;;;13.65;90.42
55466;BME280;41329;41.594;23.810;2022-12-11T00:20:10;93710.13;;;13.71;90.32
55466;BME280;41329;41.594;23.810;2022-12-11T00:22:36;93700.72;;;13.65;90.92
55466;BME280;41329;41.594;23.810;2022-12-11T00:25:01;93688.91;;;13.61;91.24
55466;BME280;41329;41.594;23.810;2022-12-11T00:27:27;93691.13;;;13.50;91.49
55466;BME280;41329;41.594;23.810;2022-12-11T00:29:52;93690.38;;;13.66;91.60
55466;BME280;41329;41.594;23.810;2022-12-11T00:32:18;93698.81;;;13.62;91.92
55466;BME280;41329;41.594;23.810;2022-12-11T00:34:43;93698.25;;;13.51;92.47
55466;BME280;41329;41.594;23.810;2022-12-11T00:37:09;93712.84;;;13.55;92.74
55466;BME280;41329;41.594;23.810;2022-12-11T00:39:36;93717.53;;;13.58;92.56
55466;BME280;41329;41.594;23.810;2022-12-11T00:42:01;93702.94;;;13.54;92.83
55466;BME280;41329;41.594;23.810;2022-12-11T00:44:27;93687.09;;;13.71;92.21
55466;BME280;41329;41.594;23.810;2022-12-11T00:46:52;93671.56;;;13.89;91.12
55466;BME280;41329;41.594;23.810;2022-12-11T00:49:17;93657.94;;;13.95;90.76
55466;BME280;41329;41.594;23.810;2022-12-11T00:51:43;93669.75;;;13.83;91.14
55466;BME280;41329;41.594;23.810;2022-12-11T00:54:08;93662.00;;;13.90;91.02
55466;BME280;41329;41.594;23.810;2022-12-11T00:56:34;93653.50;;;13.81;90.68
55466;BME280;41329;41.594;23.810;2022-12-11T00:58:59;93668.28;;;13.94;90.54
55466;BME280;41329;41.594;23.810;2022-12-11T01:01:25;93627.88;;;13.90;90.62
55466;BME280;41329;41.594;23.810;2022-12-11T01:03:51;93645.34;;;13.74;91.92
55466;BME280;41329;41.594;23.810;2022-12-11T01:06:21;93634.53;;;13.60;93.72
55466;BME280;41329;41.594;23.810;2022-12-11T01:08:47;93625.72;;;13.46;95.11
55466;BME280;41329;41.594;23.810;2022-12-11T01:11:15;93587.53;;;13.34;95.30
55466;BME280;41329;41.594;23.810;2022-12-11T01:13:41;93573.56;;;13.37;95.10
55466;BME280;41329;41.594;23.810;2022-12-11T01:16:09;93563.91;;;13.42;94.70
55466;BME280;41329;41.594;23.810;2022-12-11T01:18:36;93571.94;;;13.56;93.99
55466;BME280;41329;41.594;23.810;2022-12-11T01:21:09;93574.28;;;13.57;93.56
55466;BME280;41329;41.594;23.810;2022-12-11T01:23:35;93565.16;;;13.57;93.39
55466;BME280;41329;41.594;23.810;2022-12-11T01:26:08;93549.03;;;13.68;92.32
55466;BME280;41329;41.594;23.810;2022-12-11T01:28:34;93548.56;;;13.85;90.96
55466;BME280;41329;41.594;23.810;2022-12-11T01:30:59;93545.53;;;13.64;91.67
55466;BME280;41329;41.594;23.810;2022-12-11T01:33:25;93518.44;;;13.52;91.30
55466;BME280;41329;41.594;23.810;2022-12-11T01:35:51;93534.50;;;13.60;90.99
55466;BME280;41329;41.594;23.810;2022-12-11T01:38:16;93546.84;;;13.75;90.89
55466;BME280;41329;41.594;23.810;2022-12-11T01:40:46;93531.47;;;13.71;91.11
55466;BME280;41329;41.594;23.810;2022-12-11T01:43:12;93501.69;;;13.55;90.93
55466;BME280;41329;41.594;23.810;2022-12-11T01:45:42;93521.03;;;13.75;90.14
55466;BME280;41329;41.594;23.810;2022-12-11T01:48:21;93521.94;;;13.72;90.09
55466;BME280;41329;41.594;23.810;2022-12-11T01:50:53;93546.41;;;13.77;89.82
55466;BME280;41329;41.594;23.810;2022-12-11T01:53:32;93529.38;;;13.75;89.42
55466;BME280;41329;41.594;23.810;2022-12-11T01:55:59;93528.84;;;13.80;89.12
55466;BME280;41329;41.594;23.810;2022-12-11T01:58:34;93518.88;;;13.82;88.69
55466;BME280;41329;41.594;23.810;2022-12-11T02:01:03;93515.22;;;13.85;89.27
55466;BME280;41329;41.594;23.810;2022-12-11T02:03:28;93496.97;;;13.84;88.71
55466;BME280;41329;41.594;23.810;2022-12-11T02:05:58;93525.19;;;13.99;88.40
55466;BME280;41329;41.594;23.810;2022-12-11T02:08:23;93493.06;;;13.82;88.33
55466;BME280;41329;41.594;23.810;2022-12-11T02:14:01;93505.63;;;14.02;87.54
55466;BME280;41329;41.594;23.810;2022-12-11T02:16:43;93515.97;;;14.02;87.15
55466;BME280;41329;41.594;23.810;2022-12-11T02:19:17;93515.19;;;14.01;87.47
55466;BME280;41329;41.594;23.810;2022-12-11T02:21:48;93484.44;;;14.08;86.85
55466;BME280;41329;41.594;23.810;2022-12-11T02:32:18;93500.91;;;14.31;85.81
55466;BME280;41329;41.594;23.810;2022-12-11T02:34:51;93514.91;;;14.28;86.27
55466;BME280;41329;41.594;23.810;2022-12-11T02:37:22;93517.16;;;14.33;85.78
55466;BME280;41329;41.594;23.810;2022-12-11T02:39:51;93521.78;;;14.23;85.71
55466;BME280;41329;41.594;23.810;2022-12-11T02:42:18;93513.63;;;14.16;86.37
55466;BME280;41329;41.594;23.810;2022-12-11T02:44:45;93521.16;;;14.32;86.04
55466;BME280;41329;41.594;23.810;2022-12-11T02:47:13;93536.28;;;14.31;86.64
55466;BME280;41329;41.594;23.810;2022-12-11T02:49:43;93528.28;;;14.33;86.06
55466;BME280;41329;41.594;23.810;2022-12-11T02:52:11;93524.19;;;14.37;86.28
55466;BME280;41329;41.594;23.810;2022-12-11T02:54:39;93534.78;;;14.42;85.89
55466;BME280;41329;41.594;23.810;2022-12-11T02:57:16;93537.28;;;14.24;86.45
55466;BME280;41329;41.594;23.810;2022-12-11T02:59:44;93525.94;;;14.31;86.16
55466;BME280;41329;41.594;23.810;2022-12-11T03:02:12;93524.81;;;14.29;86.06
55466;BME280;41329;41.594;23.810;2022-12-11T03:04:39;93548.16;;;14.47;85.45
55466;BME280;41329;41.594;23.810;2022-12-11T03:07:09;93523.97;;;14.44;85.06
55466;BME280;41329;41.594;23.810;2022-12-11T03:09:41;93539.50;;;14.29;85.67
55466;BME280;41329;41.594;23.810;2022-12-11T03:12:09;93546.00;;;14.39;85.48
55466;BME280;41329;41.594;23.810;2022-12-11T03:14:37;93557.22;;;14.35;85.46
55466;BME280;41329;41.594;23.810;2022-12-11T03:17:07;93543.22;;;14.39;84.95
55466;BME280;41329;41.594;23.810;2022-12-11T03:19:40;93545.66;;;14.37;84.65
55466;BME280;41329;41.594;23.810;2022-12-11T03:22:18;93554.50;;;14.48;84.58
55466;BME280;41329;41.594;23.810;2022-12-11T03:24:50;93550.50;;;14.49;83.79
55466;BME280;41329;41.594;23.810;2022-12-11T03:29:54;93560.53;;;14.59;83.75
55466;BME280;41329;41.594;23.810;2022-12-11T03:32:25;93551.44;;;14.58;83.52
55466;BME280;41329;41.594;23.810;2022-12-11T03:35:06;93553.25;;;14.65;83.11
55466;BME280;41329;41.594;23.810;2022-12-11T03:37:36;93570.94;;;14.71;82.62
55466;BME280;41329;41.594;23.810;2022-12-11T03:40:09;93564.69;;;14.67;82.62
55466;BME280;41329;41.594;23.810;2022-12-11T03:42:38;93573.84;;;14.67;82.26
55466;BME280;41329;41.594;23.810;2022-12-11T03:45:05;93558.16;;;14.73;81.75
55466;BME280;41329;41.594;23.810;2022-12-11T03:47:32;93557.91;;;14.68;81.81
55466;BME280;41329;41.594;23.810;2022-12-11T03:50:00;93555.03;;;14.71;81.70
55466;BME280;41329;41.594;23.810;2022-12-11T03:52:28;93542.44;;;14.67;81.07
55466;BME280;41329;41.594;23.810;2022-12-11T03:54:56;93549.41;;;14.59;80.75
55466;BME280;41329;41.594;23.810;2022-12-11T03:57:28;93548.53;;;14.62;80.60
55466;BME280;41329;41.594;23.810;2022-12-11T03:59:56;93572.97;;;14.70;80.37
55466;BME280;41329;41.594;23.810;2022-12-11T04:02:22;93551.06;;;14.56;79.97
55466;BME280;41329;41.594;23.810;2022-12-11T04:04:47;93548.78;;;14.67;77.42
55466;BME280;41329;41.594;23.810;2022-12-11T04:07:13;93567.16;;;14.65;77.14
55466;BME280;41329;41.594;23.810;2022-12-11T04:09:39;93567.38;;;14.42;78.97
55466;BME280;41329;41.594;23.810;2022-12-11T04:12:04;93553.31;;;14.61;78.34
55466;BME280;41329;41.594;23.810;2022-12-11T04:14:30;93545.56;;;14.69;78.05
55466;BME280;41329;41.594;23.810;2022-12-11T04:17:14;93556.88;;;14.62;77.67
55466;BME280;41329;41.594;23.810;2022-12-11T04:19:59;93540.28;;;14.30;78.21
55466;BME280;41329;41.594;23.810;2022-12-11T04:22:43;93547.91;;;14.42;78.34
55466;BME280;41329;41.594;23.810;2022-12-11T04:25:27;93550.78;;;14.38;79.10
55466;BME280;41329;41.594;23.810;2022-12-11T04:27:52;93557.03;;;14.42;78.76
55466;BME280;41329;41.594;23.810;2022-12-11T04:30:23;93559.25;;;14.35;78.57
55466;BME280;41329;41.594;23.810;2022-12-11T04:32:49;93556.09;;;14.33;78.60
55466;BME280;41329;41.594;23.810;2022-12-11T04:35:15;93567.50;;;14.22;79.10
55466;BME280;41329;41.594;23.810;2022-12-11T04:37:41;93523.63;;;13.98;78.89
55466;BME280;41329;41.594;23.810;2022-12-11T04:40:09;93556.34;;;14.38;78.08
55466;BME280;41329;41.594;23.810;2022-12-11T04:42:35;93558.44;;;14.34;77.37
55466;BME280;41329;41.594;23.810;2022-12-11T04:45:03;93563.66;;;14.16;78.09
55466;BME280;41329;41.594;23.810;2022-12-11T04:47:28;93553.22;;;14.20;77.38
55466;BME280;41329;41.594;23.810;2022-12-11T04:49:54;93573.31;;;14.28;77.33
55466;BME280;41329;41.594;23.810;2022-12-11T04:52:19;93558.19;;;14.29;77.39
55466;BME280;41329;41.594;23.810;2022-12-11T04:54:45;93573.84;;;14.39;77.21
55466;BME280;41329;41.594;23.810;2022-12-11T04:57:10;93577.47;;;14.52;77.08
55466;BME280;41329;41.594;23.810;2022-12-11T04:59:36;93582.38;;;14.60;76.48
55466;BME280;41329;41.594;23.810;2022-12-11T05:02:02;93577.94;;;14.63;76.38
55466;BME280;41329;41.594;23.810;2022-12-11T05:04:32;93566.75;;;14.50;76.39
55466;BME280;41329;41.594;23.810;2022-12-11T05:06:58;93584.22;;;14.51;76.22
55466;BME280;41329;41.594;23.810;2022-12-11T05:09:24;93585.06;;;14.64;75.51
55466;BME280;41329;41.594;23.810;2022-12-11T05:11:50;93585.66;;;14.71;75.05
55466;BME280;41329;41.594;23.810;2022-12-11T05:14:16;93583.59;;;14.59;74.69
55466;BME280;41329;41.594;23.810;2022-12-11T05:16:41;93588.75;;;14.45;74.52
55466;BME280;41329;41.594;23.810;2022-12-11T05:19:07;93579.97;;;14.46;74.15
55466;BME280;41329;41.594;23.810;2022-12-11T05:21:32;93580.56;;;14.54;73.63
55466;BME280;41329;41.594;23.810;2022-12-11T05:23:58;93601.59;;;14.55;73.81
55466;BME280;41329;41.594;23.810;2022-12-11T05:26:23;93604.63;;;14.60;73.69
55466;BME280;41329;41.594;23.810;2022-12-11T05:28:53;93607.25;;;14.67;73.41
55466;BME280;41329;41.594;23.810;2022-12-11T05:31:25;93611.19;;;14.54;73.33
55466;BME280;41329;41.594;23.810;2022-12-11T05:33:51;93612.03;;;14.51;73.77
55466;BME280;41329;41.594;23.810;2022-12-11T05:36:23;93602.97;;;14.63;73.36
55466;BME280;41329;41.594;23.810;2022-12-11T05:38:49;93562.25;;;14.40;73.14
55466;BME280;41329;41.594;23.810;2022-12-11T05:41:17;93601.25;;;14.69;73.46
55466;BME280;41329;41.594;23.810;2022-12-11T05:43:43;93609.16;;;14.70;73.64
55466;BME280;41329;41.594;23.810;2022-12-11T05:46:13;93619.75;;;14.75;73.89
55466;BME280;41329;41.594;23.810;2022-12-11T05:48:40;93619.50;;;14.70;74.06
55466;BME280;41329;41.594;23.810;2022-12-11T05:51:06;93616.72;;;14.70;74.26
55466;BME280;41329;41.594;23.810;2022-12-11T05:53:32;93625.59;;;14.65;74.50
55466;BME280;41329;41.594;23.810;2022-12-11T05:56:03;93607.97;;;14.55;74.48
55466;BME280;41329;41.594;23.810;2022-12-11T05:58:29;93613.94;;;14.70;74.26
55466;BME280;41329;41.594;23.810;2022-12-11T06:00:55;93608.78;;;14.68;73.79
55466;BME280;41329;41.594;23.810;2022-12-11T06:03:21;93591.38;;;14.52;73.97
55466;BME280;41329;41.594;23.810;2022-12-11T06:05:46;93610.38;;;14.53;74.01
55466;BME280;41329;41.594;23.810;2022-12-11T06:08:11;93614.94;;;14.47;73.77
55466;BME280;41329;41.594;23.810;2022-12-11T06:10:37;93610.84;;;14.52;73.60
55466;BME280;41329;41.594;23.810;2022-12-11T06:13:02;93610.59;;;14.46;73.13
55466;BME280;41329;41.594;23.810;2022-12-11T06:15:28;93622.59;;;14.43;73.51
55466;BME280;41329;41.594;23.810;2022-12-11T06:17:53;93616.50;;;14.48;73.17
55466;BME280;41329;41.594;23.810;2022-12-11T06:20:19;93611.31;;;14.34;73.33
55466;BME280;41329;41.594;23.810;2022-12-11T06:22:44;93613.22;;;14.37;73.57
55466;BME280;41329;41.594;23.810;2022-12-11T06:25:10;93613.22;;;14.37;73.66
55466;BME280;41329;41.594;23.810;2022-12-11T06:27:36;93609.81;;;14.46;72.96
55466;BME280;41329;41.594;23.810;2022-12-11T06:30:01;93616.75;;;14.54;72.55
55466;BME280;41329;41.594;23.810;2022-12-11T06:32:27;93615.72;;;14.48;72.81
55466;BME280;41329;41.594;23.810;2022-12-11T06:34:52;93611.28;;;14.50;72.68
55466;BME280;41329;41.594;23.810;2022-12-11T06:37:18;93605.59;;;14.54;72.18
55466;BME280;41329;41.594;23.810;2022-12-11T06:39:43;93587.47;;;14.17;73.16
55466;BME280;41329;41.594;23.810;2022-12-11T06:42:09;93607.66;;;14.21;73.13
55466;BME280;41329;41.594;23.810;2022-12-11T06:44:34;93601.84;;;14.32;72.92
55466;BME280;41329;41.594;23.810;2022-12-11T06:47:00;93625.53;;;14.52;72.55
55466;BME280;41329;41.594;23.810;2022-12-11T06:49:25;93624.56;;;14.59;72.29
55466;BME280;41329;41.594;23.810;2022-12-11T06:51:51;93620.91;;;14.62;72.52
55466;BME280;41329;41.594;23.810;2022-12-11T06:54:16;93616.91;;;14.63;72.06
55466;BME280;41329;41.594;23.810;2022-12-11T06:56:41;93619.38;;;14.45;72.92
55466;BME280;41329;41.594;23.810;2022-12-11T06:59:10;93601.03;;;14.47;72.74
55466;BME280;41329;41.594;23.810;2022-12-11T07:01:36;93615.09;;;14.56;72.46
55466;BME280;41329;41.594;23.810;2022-12-11T07:04:01;93617.50;;;14.70;72.07
55466;BME280;41329;41.594;23.810;2022-12-11T07:06:27;93619.00;;;14.59;72.22
55466;BME280;41329;41.594;23.810;2022-12-11T07:08:53;93626.81;;;14.64;72.20
55466;BME280;41329;41.594;23.810;2022-12-11T07:11:20;93611.44;;;14.59;72.42
55466;BME280;41329;41.594;23.810;2022-12-11T07:13:45;93612.50;;;14.49;72.15
55466;BME280;41329;41.594;23.810;2022-12-11T07:16:12;93606.31;;;14.58;72.12
55466;BME280;41329;41.594;23.810;2022-12-11T07:18:42;93599.63;;;14.55;72.37
55466;BME280;41329;41.594;23.810;2022-12-11T07:21:10;93604.47;;;14.67;72.12
55466;BME280;41329;41.594;23.810;2022-12-11T07:23:36;93593.78;;;14.78;71.82
55466;BME280;41329;41.594;23.810;2022-12-11T07:26:08;93600.03;;;14.82;71.94
55466;BME280;41329;41.594;23.810;2022-12-11T07:28:34;93584.25;;;14.79;71.54
55466;BME280;41329;41.594;23.810;2022-12-11T07:31:04;93601.78;;;14.92;71.27
55466;BME280;41329;41.594;23.810;2022-12-11T07:33:30;93605.56;;;14.98;71.21
55466;BME280;41329;41.594;23.810;2022-12-11T07:35:55;93598.53;;;14.94;71.06
55466;BME280;41329;41.594;23.810;2022-12-11T07:38:20;93580.19;;;14.96;70.78
55466;BME280;41329;41.594;23.810;2022-12-11T07:40:46;93603.28;;;15.09;70.77
55466;BME280;41329;41.594;23.810;2022-12-11T07:43:11;93582.22;;;15.08;71.19
55466;BME280;41329;41.594;23.810;2022-12-11T07:45:37;93572.63;;;15.09;71.28
55466;BME280;41329;41.594;23.810;2022-12-11T07:48:02;93562.81;;;15.05;71.12
55466;BME280;41329;41.594;23.810;2022-12-11T07:50:28;93567.50;;;15.20;70.85
55466;BME280;41329;41.594;23.810;2022-12-11T07:52:53;93545.34;;;15.17;70.71
55466;BME280;41329;41.594;23.810;2022-12-11T07:55:19;93560.72;;;15.21;70.41
55466;BME280;41329;41.594;23.810;2022-12-11T07:57:44;93567.06;;;15.22;70.82
55466;BME280;41329;41.594;23.810;2022-12-11T08:00:10;93578.28;;;15.34;70.75
55466;BME280;41329;41.594;23.810;2022-12-11T08:02:36;93578.59;;;15.36;70.43
55466;BME280;41329;41.594;23.810;2022-12-11T08:05:02;93581.75;;;15.38;70.26
55466;BME280;41329;41.594;23.810;2022-12-11T08:07:28;93566.31;;;15.21;70.42
55466;BME280;41329;41.594;23.810;2022-12-11T08:09:53;93574.00;;;15.30;70.48
55466;BME280;41329;41.594;23.810;2022-12-11T08:12:18;93571.47;;;15.35;70.92
55466;BME280;41329;41.594;23.810;2022-12-11T08:14:44;93582.19;;;15.62;71.03
55466;BME280;41329;41.594;23.810;2022-12-11T08:17:09;93569.81;;;15.63;70.47
55466;BME280;41329;41.594;23.810;2022-12-11T08:19:35;93585.75;;;15.87;69.73
55466;BME280;41329;41.594;23.810;2022-12-11T08:22:00;93560.22;;;15.89;69.58
55466;BME280;41329;41.594;23.810;2022-12-11T08:24:25;93567.88;;;16.10;69.60
55466;BME280;41329;41.594;23.810;2022-12-11T08:26:51;93564.22;;;16.00;68.88
55466;BME280;41329;41.594;23.810;2022-12-11T08:29:17;93541.34;;;16.05;69.47
55466;BME280;41329;41.594;23.810;2022-12-11T08:31:42;93548.13;;;16.04;67.99
55466;BME280;41329;41.594;23.810;2022-12-11T08:34:08;93568.09;;;16.28;68.88
55466;BME280;41329;41.594;23.810;2022-12-11T08:36:38;93562.25;;;16.47;69.75
55466;BME280;41329;41.594;23.810;2022-12-11T08:39:03;93515.91;;;16.37;68.57
55466;BME280;41329;41.594;23.810;2022-12-11T08:41:29;93555.66;;;16.41;65.94
55466;BME280;41329;41.594;23.810;2022-12-11T08:43:56;93543.16;;;16.46;67.88
55466;BME280;41329;41.594;23.810;2022-12-11T08:46:25;93538.50;;;16.64;66.64
55466;BME280;41329;41.594;23.810;2022-12-11T08:48:51;93540.22;;;16.49;66.45
55466;BME280;41329;41.594;23.810;2022-12-11T08:51:20;93542.72;;;16.47;66.78
55466;BME280;41329;41.594;23.810;2022-12-11T08:53:47;93539.63;;;16.67;67.59
55466;BME280;41329;41.594;23.810;2022-12-11T08:56:17;93535.19;;;16.78;68.10
55466;BME280;41329;41.594;23.810;2022-12-11T08:58:43;93511.91;;;16.72;67.02
55466;BME280;41329;41.594;23.810;2022-12-11T09:01:16;93537.22;;;16.99;66.15
55466;BME280;41329;41.594;23.810;2022-12-11T09:03:42;93546.78;;;16.89;64.91
55466;BME280;41329;41.594;23.810;2022-12-11T09:06:15;93534.47;;;16.65;64.38
55466;BME280;41329;41.594;23.810;2022-12-11T09:08:42;93537.34;;;16.53;63.96
55466;BME280;41329;41.594;23.810;2022-12-11T09:11:12;93530.09;;;16.43;63.40
55466;BME280;41329;41.594;23.810;2022-12-11T09:13:38;93532.56;;;16.41;63.58
55466;BME280;41329;41.594;23.810;2022-12-11T09:16:07;93526.38;;;16.12;63.80
55466;BME280;41329;41.594;23.810;2022-12-11T09:18:33;93520.03;;;15.99;64.01
55466;BME280;41329;41.594;23.810;2022-12-11T09:21:04;93530.13;;;16.18;64.26
55466;BME280;41329;41.594;23.810;2022-12-11T09:23:30;93519.44;;;16.16;65.40
55466;BME280;41329;41.594;23.810;2022-12-11T09:25:56;93517.75;;;16.19;64.89
55466;BME280;41329;41.594;23.810;2022-12-11T09:28:22;93518.09;;;16.21;64.38
55466;BME280;41329;41.594;23.810;2022-12-11T09:30:48;93510.59;;;16.30;64.31
55466;BME280;41329;41.594;23.810;2022-12-11T09:33:13;93513.13;;;16.37;64.93
55466;BME280;41329;41.594;23.810;2022-12-11T09:35:38;93503.19;;;16.49;64.64
55466;BME280;41329;41.594;23.810;2022-12-11T09:38:04;93503.56;;;16.60;63.74
55466;BME280;41329;41.594;23.810;2022-12-11T09:40:30;93514.78;;;16.69;64.86
55466;BME280;41329;41.594;23.810;2022-12-11T09:43:02;93510.66;;;16.73;63.76
55466;BME280;41329;41.594;23.810;2022-12-11T09:45:30;93500.53;;;16.67;63.28
55466;BME280;41329;41.594;23.810;2022-12-11T09:47:59;93511.56;;;16.70;63.52
55466;BME280;41329;41.594;23.810;2022-12-11T09:50:31;93507.78;;;16.64;63.92
55466;BME280;41329;41.594;23.810;2022-12-11T09:53:13;93482.13;;;16.57;63.90
55466;BME280;41329;41.594;23.810;2022-12-11T10:01:05;93495.50;;;16.83;63.00
55466;BME280;41329;41.594;23.810;2022-12-11T10:03:43;93499.53;;;16.82;63.06
55466;BME280;41329;41.594;23.810;2022-12-11T10:06:38;93478.81;;;16.49;62.05
55466;BME280;41329;41.594;23.810;2022-12-11T10:09:16;93492.19;;;16.54;63.06
55466;BME280;41329;41.594;23.810;2022-12-11T10:16:43;93480.06;;;16.70;61.29
55466;BME280;41329;41.594;23.810;2022-12-11T10:19:29;93479.88;;;16.64;60.59
55466;BME280;41329;41.594;23.810;2022-12-11T10:21:56;93416.25;;;16.25;60.74
55466;BME280;41329;41.594;23.810;2022-12-11T10:26:54;93418.81;;;16.32;60.19
55466;BME280;41329;41.594;23.810;2022-12-11T10:29:22;93447.72;;;16.60;61.29
55466;BME280;41329;41.594;23.810;2022-12-11T10:31:57;93458.69;;;16.76;61.57
55466;BME280;41329;41.594;23.810;2022-12-11T10:34:34;93458.34;;;16.95;61.00
55466;BME280;41329;41.594;23.810;2022-12-11T10:37:02;93445.22;;;17.05;60.58
55466;BME280;41329;41.594;23.810;2022-12-11T10:39:27;93470.44;;;17.23;61.41
55466;BME280;41329;41.594;23.810;2022-12-11T10:41:54;93466.13;;;17.31;57.95
55466;BME280;41329;41.594;23.810;2022-12-11T10:44:28;93460.59;;;17.40;57.96
55466;BME280;41329;41.594;23.810;2022-12-11T10:47:12;93467.28;;;17.42;58.19
55466;BME280;41329;41.594;23.810;2022-12-11T10:49:43;93459.03;;;17.39;59.19
55466;BME280;41329;41.594;23.810;2022-12-11T10:52:21;93459.88;;;17.18;58.89
55466;BME280;41329;41.594;23.810;2022-12-11T10:54:54;93461.88;;;17.17;59.63
55466;BME280;41329;41.594;23.810;2022-12-11T10:57:27;93462.53;;;16.91;59.16
55466;BME280;41329;41.594;23.810;2022-12-11T10:59:54;93451.16;;;16.85;60.12
55466;BME280;41329;41.594;23.810;2022-12-11T11:02:31;93450.81;;;16.83;59.70
55466;BME280;41329;41.594;23.810;2022-12-11T11:04:59;93451.75;;;16.80;60.09
55466;BME280;41329;41.594;23.810;2022-12-11T11:07:30;93435.72;;;16.72;60.49
55466;BME280;41329;41.594;23.810;2022-12-11T11:15:11;93452.84;;;16.61;60.70
55466;BME280;41329;41.594;23.810;2022-12-11T11:17:49;93446.16;;;16.59;61.05
55466;BME280;41329;41.594;23.810;2022-12-11T11:20:17;93451.41;;;16.57;61.48
55466;BME280;41329;41.594;23.810;2022-12-11T11:22:45;93449.88;;;16.56;61.31
55466;BME280;41329;41.594;23.810;2022-12-11T11:25:19;93453.69;;;16.49;61.88
55466;BME280;41329;41.594;23.810;2022-12-11T11:27:54;93447.63;;;16.63;61.42
55466;BME280;41329;41.594;23.810;2022-12-11T11:30:33;93438.44;;;16.63;60.85
55466;BME280;41329;41.594;23.810;2022-12-11T11:33:17;93434.59;;;16.69;60.30
55466;BME280;41329;41.594;23.810;2022-12-11T11:35:56;93445.97;;;16.75;60.41
55466;BME280;41329;41.594;23.810;2022-12-11T11:38:28;93442.97;;;16.69;59.39
55466;BME280;41329;41.594;23.810;2022-12-11T11:43:49;93435.50;;;16.66;60.32
55466;BME280;41329;41.594;23.810;2022-12-11T11:46:43;93427.72;;;16.61;60.37
55466;BME280;41329;41.594;23.810;2022-12-11T11:52:14;93439.06;;;16.88;59.94
55466;BME280;41329;41.594;23.810;2022-12-11T11:55:01;93436.09;;;16.83;58.08
55466;BME280;41329;41.594;23.810;2022-12-11T11:57:52;93430.31;;;16.77;55.21
55466;BME280;41329;41.594;23.810;2022-12-11T12:00:21;93428.63;;;16.58;53.42
55466;BME280;41329;41.594;23.810;2022-12-11T12:02:50;93435.19;;;16.43;53.60
55466;BME280;41329;41.594;23.810;2022-12-11T12:05:24;93404.72;;;16.14;53.54
55466;BME280;41329;41.594;23.810;2022-12-11T12:11:33;93427.97;;;16.33;54.82
55466;BME280;41329;41.594;23.810;2022-12-11T12:14:17;93428.72;;;16.33;54.96
55466;BME280;41329;41.594;23.810;2022-12-11T12:25:57;93438.44;;;16.07;54.42
55466;BME280;41329;41.594;23.810;2022-12-11T12:28:50;93439.19;;;15.86;55.29
55466;BME280;41329;41.594;23.810;2022-12-11T12:33:56;93447.91;;;15.76;55.21
55466;BME280;41329;41.594;23.810;2022-12-11T12:44:53;93464.22;;;15.27;56.60
55466;BME280;41329;41.594;23.810;2022-12-11T12:47:25;93459.88;;;15.01;58.46
55466;BME280;41329;41.594;23.810;2022-12-11T12:49:53;93457.53;;;14.87;59.38
55466;BME280;41329;41.594;23.810;2022-12-11T12:52:25;93464.78;;;14.97;59.62
55466;BME280;41329;41.594;23.810;2022-12-11T12:54:56;93464.41;;;14.70;60.83
55466;BME280;41329;41.594;23.810;2022-12-11T12:57:49;93466.34;;;14.57;61.94
55466;BME280;41329;41.594;23.810;2022-12-11T13:03:02;93470.38;;;14.56;62.28
55466;BME280;41329;41.594;23.810;2022-12-11T13:05:41;93446.00;;;14.48;62.24
55466;BME280;41329;41.594;23.810;2022-12-11T13:08:08;93481.00;;;14.74;62.33
55466;BME280;41329;41.594;23.810;2022-12-11T13:10:39;93489.53;;;14.54;63.19
55466;BME280;41329;41.594;23.810;2022-12-11T13:13:34;93486.19;;;14.59;63.81
55466;BME280;41329;41.594;23.810;2022-12-11T13:16:24;93491.53;;;14.54;63.50
55466;BME280;41329;41.594;23.810;2022-12-11T13:18:50;93500.84;;;14.47;64.12
55466;BME280;41329;41.594;23.810;2022-12-11T13:23:51;93514.50;;;14.42;65.08
55466;BME280;41329;41.594;23.810;2022-12-11T13:26:28;93516.19;;;14.39;65.38
55466;BME280;41329;41.594;23.810;2022-12-11T13:28:54;93506.81;;;14.33;65.97
55466;BME280;41329;41.594;23.810;2022-12-11T13:33:52;93490.31;;;14.10;66.67
55466;BME280;41329;41.594;23.810;2022-12-11T13:38:50;93504.66;;;14.09;67.27
55466;BME280;41329;41.594;23.810;2022-12-11T13:41:18;93502.94;;;13.99;67.39
55466;BME280;41329;41.594;23.810;2022-12-11T13:43:46;93495.03;;;13.97;67.42
55466;BME280;41329;41.594;23.810;2022-12-11T13:46:14;93499.09;;;14.09;67.36
55466;BME280;41329;41.594;23.810;2022-12-11T13:48:49;93486.38;;;13.95;67.27
55466;BME280;41329;41.594;23.810;2022-12-11T13:51:18;93485.16;;;13.96;66.56
55466;BME280;41329;41.594;23.810;2022-12-11T13:53:44;93488.66;;;13.68;65.39
55466;BME280;41329;41.594;23.810;2022-12-11T13:56:16;93481.38;;;13.42;66.70
55466;BME280;41329;41.594;23.810;2022-12-11T13:58:42;93486.41;;;13.47;68.18
55466;BME280;41329;41.594;23.810;2022-12-11T14:01:15;93481.72;;;13.44;68.67
55466;BME280;41329;41.594;23.810;2022-12-11T14:03:50;93473.91;;;13.39;68.61
55466;BME280;41329;41.594;23.810;2022-12-11T14:06:17;93493.59;;;13.45;68.61
55466;BME280;41329;41.594;23.810;2022-12-11T14:08:44;93496.72;;;13.31;69.46
55466;BME280;41329;41.594;23.810;2022-12-11T14:11:23;93494.22;;;13.36;69.68